Terminal Aerodrome Forecast
Issued by NWS

Home | Current Version | Previous Version | Graphics & Text | Print | Product List | Glossary On
Versions: 1 2 3 4 5 6 7 8 9 10 11 12 13 14 15 16 17 18 19 20 21 22
000
FTUS43 KBIS 190900 AAA
TAFJMS
TAF AMD
KJMS 190957Z 1910/2006 19014KT P6SM -SHRA SCT025 BKN070 OVC100
     FM191600 23010KT P6SM SCT025 SCT120
     FM192000 26011KT P6SM FEW120=

USA.gov is the U.S. government's official web portal to all federal, state and local government web resources and services.